Latest Weather Observations for Wynyard

IDT60801

Issued at 11:35 pm EST Thursday 18 September 2014 (issued every 30 minutes, with the page automatically refreshed every 10 minutes)

About weather observations | Map of weather stations | Latest weather observations for TAS | Other Formats
Station Details ID: 091107 Name: WYNYARD AIRPORT Lat: -41.00 Lon: 145.73 Height: 12.0 m
Data from the previous 72 hours. | See also: Recent months at Wynyard
Date/Time
EST
Temp
°C
App
Temp
°C
Dew
Point
Rel
Hum
%
Delta-T
°C
Wind Press
QNH
hPa
Press
MSL
hPa
Rain
since 9 am
mm
Dir
 
Spd
km/h
Gust
km/h
Spd
kts
Gust
kts
18/11:30pm 7.1 3.9 6.7 97 0.2 W 13 15 7 8 1019.6 1019.6 0.2
18/11:00pm 8.6 4.4 7.5 93 0.5 WNW 19 22 10 12 1019.7 1019.7 0.2
18/10:30pm 8.9 5.1 7.5 91 0.7 WNW 17 22 9 12 1019.8 1019.8 0.2
18/10:00pm 9.5 5.3 7.4 87 1.0 WNW 19 22 10 12 1019.9 1019.9 0.2
18/09:30pm 9.4 5.5 7.0 85 1.1 WNW 17 20 9 11 1019.9 1019.9 0.2
18/09:00pm 9.4 5.8 6.8 84 1.2 WNW 15 19 8 10 1019.9 1019.9 0.2
18/08:30pm 9.3 4.9 6.7 84 1.2 WNW 19 22 10 12 1019.6 1019.6 0.2
18/08:00pm 9.6 4.6 6.5 81 1.4 WNW 22 26 12 14 1019.5 1019.5 0.2
18/07:30pm 9.2 5.4 5.6 78 1.6 W 15 19 8 10 1019.4 1019.4 0.2
18/07:00pm 9.6 4.4 5.6 76 1.8 W 22 30 12 16 1018.9 1018.9 0.2
18/06:30pm 9.2 4.4 4.8 74 2.0 W 19 22 10 12 1019.0 1019.0 0.2
18/06:00pm 10.3 5.3 4.5 67 2.6 W 20 35 11 19 1019.0 1019.0 0.2
18/05:30pm 11.1 6.5 3.6 60 3.3 W 17 26 9 14 1018.4 1018.4 0.2
18/05:05pm 11.9 3.8 3.4 56 3.8 WSW 35 54 19 29 1018.2 1018.2 0.2
18/05:00pm 11.9 2.7 3.4 56 3.7 WSW 41 54 22 29 1018.1 1018.1 0.2
18/04:44pm 11.9 3.7 2.9 54 3.9 WSW 35 54 19 29 1018.1 1018.1 0.2
18/04:30pm 12.2 5.5 3.7 56 3.8 WSW 28 44 15 24 1018.3 1018.3 0.2
18/04:02pm 12.1 4.6 3.3 55 3.9 SW 32 50 17 27 1018.3 1018.3 0.2
18/04:00pm 12.4 4.7 3.6 55 3.9 SW 33 50 18 27 1018.3 1018.3 0.2
18/03:32pm 12.8 5.1 2.4 49 4.5 SW 32 50 17 27 1017.9 1017.9 0.0
18/03:30pm 13.5 6.4 3.3 50 4.6 SW 30 46 16 25 1017.9 1017.9 0.0
18/03:04pm 13.5 5.2 2.1 46 5.0 SW 35 54 19 29 1017.9 1017.9 0.0
18/03:00pm 13.9 6.3 3.9 51 4.5 SW 33 50 18 27 1017.9 1017.9 0.0
18/02:49pm 13.6 5.9 2.2 46 5.0 SW 32 52 17 28 1017.8 1017.8 0.0
18/02:30pm 13.9 6.5 4.2 52 4.4 SW 32 46 17 25 1017.8 1017.8 0.0
18/02:00pm 13.3 5.4 4.5 55 4.0 SW 35 50 19 27 1017.8 1017.8 0.0
18/01:30pm 13.4 6.4 4.3 54 4.2 SW 30 50 16 27 1017.5 1017.5 0.0
18/01:29pm 13.5 6.5 4.1 53 4.3 SW 30 50 16 27 1017.5 1017.5 0.0
18/01:00pm 13.5 5.2 4.4 54 4.2 SW 37 48 20 26 1017.7 1017.7 0.0
18/12:30pm 14.4 7.0 5.0 53 4.4 WSW 33 50 18 27 1017.7 1017.7 0.0
18/12:26pm 14.2 6.9 4.5 52 4.5 WSW 32 50 17 27 1017.6 1017.6 0.0
18/12:00pm 13.8 6.1 5.2 56 4.0 WSW 35 52 19 28 1017.8 1017.8 0.0
18/11:53am 13.9 7.5 5.0 55 4.1 SW 28 46 15 25 1017.8 1017.8 0.0
18/11:30am 13.4 7.7 4.8 56 4.0 SW 24 37 13 20 1018.0 1018.0 0.0
18/11:15am 13.3 7.0 5.9 61 3.5 SW 28 50 15 27 1017.9 1017.9 0.0
18/11:00am 12.5 6.0 4.7 59 3.6 SW 28 43 15 23 1018.1 1018.1 0.0
18/10:30am 12.4 4.7 3.6 55 3.9 SW 33 43 18 23 1018.2 1018.2 0.0
18/10:00am 11.9 7.0 5.1 63 3.1 SW 20 32 11 17 1018.1 1018.1 0.0
18/09:30am 10.9 5.6 5.2 68 2.6 SW 22 33 12 18 1018.1 1018.1 0.0
18/09:00am 9.7 2.5 5.1 73 2.1 SW 32 44 17 24 1017.7 1017.7 1.2
18/08:30am 8.4 3.4 4.8 78 1.6 SW 20 32 11 17 1017.5 1017.5 1.2
18/08:00am 8.1 3.4 5.0 81 1.4 WSW 19 26 10 14 1017.3 1017.3 1.2
18/07:30am 6.6 2.2 4.6 87 0.9 W 17 26 9 14 1017.2 1017.2 1.2
18/07:00am 5.9 2.6 4.5 91 0.6 W 11 15 6 8 1016.5 1016.6 1.2
18/06:30am 5.9 0.8 4.1 88 0.8 WNW 20 24 11 13 1016.2 1016.3 1.2
18/06:00am 6.0 0.9 4.0 87 0.8 WNW 20 24 11 13 1015.9 1016.0 1.2
18/05:30am 5.7 1.6 4.2 90 0.6 WNW 15 19 8 10 1015.6 1015.7 1.2
18/05:00am 5.3 2.3 4.1 92 0.5 NNW 9 13 5 7 1015.3 1015.4 1.2
18/04:30am 5.8 2.1 4.3 90 0.6 NW 13 17 7 9 1015.1 1015.2 1.2
18/04:00am 5.7 1.6 4.2 90 0.6 W 15 22 8 12 1014.8 1014.9 1.2
18/03:30am 5.9 2.2 4.2 89 0.7 W 13 20 7 11 1014.6 1014.7 1.2
18/03:00am 5.8 1.3 4.0 88 0.8 WSW 17 26 9 14 1014.4 1014.5 1.2
18/02:30am 5.9 0.0 3.9 87 0.8 WSW 24 32 13 17 1013.9 1014.0 1.2
18/02:00am 5.3 -1.3 4.0 91 0.5 WSW 28 37 15 20 1013.7 1013.8 1.2
18/01:30am 5.3 -2.1 4.0 91 0.5 WSW 32 43 17 23 1013.5 1013.6 1.2
18/01:00am 4.4 -2.6 4.0 97 0.2 W 30 35 16 19 1013.7 1013.8 1.2
18/12:30am 3.8 -1.8 3.7 99 0.0 W 22 24 12 13 1013.8 1013.9 1.2
18/12:00am 3.5 -2.1 3.4 99 0.0 WNW 22 26 12 14 1013.7 1013.8 1.2
 
Date/Time
EST
Temp
°C
App
Temp
°C
Dew
Point
Rel
Hum
%
Delta-T
°C
Wind Press
QNH
hPa
Press
MSL
hPa
Rain
since 9 am
mm
Dir
 
Spd
km/h
Gust
km/h
Spd
kts
Gust
kts
17/11:30pm 2.6 -2.6 2.5 99 0.0 W 19 20 10 11 1013.4 1013.5 1.2
17/11:00pm 2.3 -2.6 2.2 99 0.0 W 17 19 9 10 1013.2 1013.3 1.2
17/10:30pm 2.7 -0.6 2.6 99 0.0 WNW 9 13 5 7 1013.0 1013.1 1.2
17/10:00pm 3.0 0.3 2.9 99 0.0 WNW 6 7 3 4 1012.8 1012.9 1.2
17/09:30pm 4.0 1.5 3.9 99 0.0 W 6 11 3 6 1012.9 1013.0 1.2
17/09:00pm 4.7 2.3 4.1 96 0.3 N 6 7 3 4 1012.2 1012.3 1.0
17/08:30pm 5.0 1.6 4.1 94 0.4 WNW 11 15 6 8 1012.0 1012.1 1.0
17/08:00pm 5.7 0.7 4.7 93 0.4 W 20 28 11 15 1011.9 1012.0 1.0
17/07:30pm 6.1 1.3 4.9 92 0.5 W 19 24 10 13 1011.8 1011.9 1.0
17/07:00pm 5.2 2.3 4.6 96 0.3 WSW 9 13 5 7 1011.1 1011.2 0.8
17/06:30pm 5.8 3.3 4.9 94 0.4 WNW 7 9 4 5 1010.6 1010.7 0.8
17/06:00pm 5.9 3.2 3.9 87 0.8 W 7 11 4 6 1010.2 1010.3 0.8
17/05:30pm 6.5 3.0 3.7 82 1.2 WSW 11 15 6 8 1009.8 1009.9 0.8
17/05:00pm 7.3 -0.1 3.9 79 1.5 WSW 32 44 17 24 1009.3 1009.4 0.8
17/04:32pm 7.1 0.5 4.4 83 1.2 SW 28 48 15 26 1008.9 1009.0 0.8
17/04:30pm 7.2 1.1 4.9 85 1.0 SW 26 32 14 17 1009.0 1009.1 0.8
17/04:00pm 7.6 -2.5 3.8 77 1.6 WSW 46 65 25 35 1008.1 1008.2 0.6
17/03:30pm 9.3 -0.9 3.3 66 2.6 SW 46 65 25 35 1006.9 1007.0 0.6
17/03:00pm 9.7 1.1 4.7 71 2.2 WSW 39 61 21 33 1006.5 1006.6 0.6
17/02:30pm 8.7 0.8 4.3 74 1.9 WSW 35 56 19 30 1006.6 1006.7 0.6
17/02:09pm 9.0 1.1 6.4 84 1.2 WSW 37 56 20 30 1006.5 1006.6 0.6
17/02:00pm 7.8 -1.2 4.4 79 1.5 WSW 41 56 22 30 1006.5 1006.6 0.6
17/01:43pm 8.4 2.2 6.2 86 1.0 WSW 28 52 15 28 1006.7 1006.8 0.6
17/01:30pm 8.0 -0.5 7.1 94 0.4 WSW 41 65 22 35 1006.7 1006.8 0.6
17/01:27pm 6.9 -3.0 4.9 87 0.9 W 46 65 25 35 1006.7 1006.8 0.6
17/01:26pm 6.9 -3.4 4.6 85 1.0 W 48 65 26 35 1006.7 1006.8 0.6
17/01:21pm 8.9 -1.1 4.1 72 2.1 W 46 61 25 33 1006.4 1006.5 0.4
17/01:00pm 10.9 5.1 4.6 65 2.8 WSW 24 41 13 22 1006.2 1006.3 0.4
17/12:30pm 8.6 1.4 5.2 79 1.5 WSW 32 44 17 24 1006.6 1006.7 0.4
17/12:22pm 8.8 1.0 5.0 77 1.7 WSW 35 54 19 29 1006.5 1006.6 0.4
17/12:00pm 9.6 0.1 5.0 73 2.1 W 44 59 24 32 1006.5 1006.6 0.4
17/11:52am 9.6 0.2 4.6 71 2.2 W 43 59 23 32 1006.4 1006.5 0.4
17/11:30am 10.2 3.5 5.8 74 2.0 W 30 37 16 20 1006.3 1006.4 0.4
17/11:00am 10.3 5.0 7.0 80 1.6 WSW 24 32 13 17 1006.2 1006.3 0.4
17/10:30am 9.6 5.1 6.9 83 1.3 WSW 20 28 11 15 1006.6 1006.7 0.4
17/10:05am 8.2 1.9 5.8 85 1.1 WSW 28 54 15 29 1006.9 1007.0 0.4
17/10:00am 9.7 5.0 7.6 87 1.0 WSW 22 30 12 16 1006.9 1007.0 0.0
17/09:30am 9.6 5.7 8.5 93 0.5 W 19 24 10 13 1006.6 1006.7 0.0
17/09:00am 8.7 4.6 8.6 99 0.0 W 20 24 11 13 1006.9 1007.0 11.4
17/08:30am 9.4 6.0 9.3 99 0.0 WSW 17 20 9 11 1007.0 1007.1 11.2
17/08:00am 7.9 4.2 7.9 100 0.0 W 17 28 9 15 1006.9 1007.0 11.0
17/07:30am 7.9 6.1 7.9 100 0.0 W 7 11 4 6 1006.9 1007.0 10.4
17/07:00am 5.3 2.5 5.3 100 0.0 W 9 13 5 7 1006.8 1006.9 10.4
17/06:55am 4.6 1.7 4.5 99 0.0 W 9 13 5 7 1006.9 1007.0 10.4
17/06:30am 3.7 0.2 3.6 99 0.0 WNW 11 13 6 7 1007.2 1007.3 10.4
17/06:00am 4.4 1.4 4.3 99 0.0 WSW 9 9 5 5 1007.3 1007.4 10.2
17/05:54am 4.0 1.0 3.9 99 0.0 WSW 9 9 5 5 1007.3 1007.4 10.2
17/05:30am 5.1 2.3 5.1 100 0.0 W 9 9 5 5 1007.3 1007.4 10.2
17/05:00am 5.5 3.3 5.5 100 0.0 W 6 9 3 5 1007.3 1007.4 10.2
17/04:30am 5.5 2.8 5.5 100 0.0 W 9 11 5 6 1007.5 1007.6 10.2
17/04:00am 5.2 2.4 5.2 100 0.0 W 9 9 5 5 1007.7 1007.8 10.2
17/03:50am 5.3 2.5 5.3 100 0.0 W 9 11 5 6 1007.7 1007.8 10.2
17/03:30am 5.1 3.2 5.1 100 0.0 W 4 7 2 4 1007.9 1008.0 10.2
17/03:00am 4.4 3.1 4.3 99 0.0 CALM 0 0 0 0 1008.2 1008.3 10.2
17/02:43am 4.8 3.6 4.7 99 0.0 CALM 0 0 0 0 1008.4 1008.5 10.2
17/02:30am 5.1 3.6 5.0 99 0.0 SW 2 6 1 3 1008.5 1008.6 10.2
17/02:04am 5.0 2.7 4.9 99 0.0 WNW 6 7 3 4 1008.6 1008.7 10.2
17/02:00am 5.2 3.0 5.1 99 0.0 WNW 6 7 3 4 1008.7 1008.8 10.2
17/01:46am 5.0 2.1 4.9 99 0.0 WSW 9 11 5 6 1009.0 1009.1 10.2
17/01:41am 4.9 2.0 4.8 99 0.0 WSW 9 11 5 6 1009.1 1009.2 9.8
17/01:30am 4.0 1.0 3.9 99 0.0 WSW 9 11 5 6 1009.3 1009.4 9.8
17/01:06am 4.0 1.0 3.9 99 0.0 W 9 9 5 5 1009.5 1009.6 9.8
17/01:00am 4.8 1.9 4.7 99 0.0 W 9 9 5 5 1009.5 1009.6 9.8
17/12:30am 4.7 1.8 4.6 99 0.0 W 9 13 5 7 1009.7 1009.8 9.8
17/12:11am 4.6 0.9 4.5 99 0.0 W 13 17 7 9 1009.7 1009.8 9.8
17/12:00am 4.4 1.4 4.3 99 0.0 W 9 11 5 6 1009.7 1009.8 9.8
 
Date/Time
EST
Temp
°C
App
Temp
°C
Dew
Point
Rel
Hum
%
Delta-T
°C
Wind Press
QNH
hPa
Press
MSL
hPa
Rain
since 9 am
mm
Dir
 
Spd
km/h
Gust
km/h
Spd
kts
Gust
kts
16/11:30pm 4.3 1.3 4.2 99 0.0 WSW 9 9 5 5 1009.7 1009.8 9.8
16/11:29pm 4.5 1.6 4.4 99 0.0 WSW 9 9 5 5 1009.8 1009.9 9.8
16/11:00pm 6.3 3.7 6.2 99 0.0 W 9 9 5 5 1010.2 1010.3 9.8
16/10:30pm 6.4 3.8 6.3 99 0.0 W 9 13 5 7 1010.1 1010.2 9.8
16/10:00pm 6.2 2.8 6.1 99 0.0 W 13 13 7 7 1010.2 1010.3 9.8
16/09:30pm 6.8 3.6 6.7 99 0.0 W 13 15 7 8 1010.2 1010.3 9.8
16/09:00pm 7.8 4.4 7.7 99 0.0 W 15 15 8 8 1010.3 1010.4 9.8
16/08:30pm 8.6 5.4 8.6 100 0.0 W 15 17 8 9 1010.5 1010.6 9.8
16/08:00pm 8.2 4.9 8.1 99 0.0 W 15 17 8 9 1010.4 1010.5 9.8
16/07:30pm 8.4 5.2 8.3 99 0.0 W 15 17 8 9 1010.3 1010.4 9.8
16/07:00pm 8.9 6.5 8.8 99 0.0 W 11 13 6 7 1010.2 1010.3 9.8
16/06:30pm 9.0 6.7 8.9 99 0.0 W 11 11 6 6 1010.0 1010.1 9.8
16/06:00pm 10.4 8.3 9.9 97 0.3 WNW 11 13 6 7 1010.1 1010.2 9.8
16/05:30pm 11.0 9.8 9.6 91 0.7 W 6 9 3 5 1010.0 1010.1 9.8
16/05:00pm 11.0 9.7 9.3 89 0.9 SW 6 9 3 5 1009.9 1010.0 9.8
16/04:30pm 11.2 10.7 9.3 88 1.0 SE 2 7 1 4 1009.7 1009.8 9.8
16/04:00pm 10.8 8.9 8.9 88 0.9 SE 9 17 5 9 1009.6 1009.7 9.8
16/03:30pm 10.4 8.2 9.5 94 0.5 ESE 11 13 6 7 1009.6 1009.7 9.8
16/03:00pm 9.9 7.8 9.6 98 0.2 SE 11 13 6 7 1009.8 1009.9 9.8
16/02:30pm 10.0 8.3 9.9 99 0.1 SSE 9 13 5 7 1010.0 1010.1 9.8
16/02:00pm 9.7 7.6 9.6 99 0.0 SE 11 15 6 8 1010.2 1010.3 9.6
16/01:30pm 9.3 7.4 9.2 99 0.0 SSE 9 11 5 6 1010.6 1010.7 8.8
16/01:00pm 9.2 6.9 9.1 99 0.0 SSE 11 13 6 7 1011.0 1011.1 7.8
16/12:47pm 9.4 7.2 9.3 99 0.0 SSE 11 13 6 7 1011.1 1011.2 7.4
16/12:30pm 9.4 7.9 9.3 99 0.0 S 7 11 4 6 1011.3 1011.4 6.8
16/12:05pm 9.2 7.3 9.1 99 0.0 S 9 13 5 7 1011.6 1011.7 5.0
16/12:01pm 9.1 7.2 9.0 99 0.0 S 9 13 5 7 1011.6 1011.7 4.6
16/12:00pm 9.1 6.8 9.0 99 0.0 S 11 15 6 8 1011.6 1011.7 4.6
16/11:30am 9.2 6.9 9.1 99 0.0 SSE 11 15 6 8 1011.6 1011.7 3.6
16/11:00am 9.1 6.8 9.0 99 0.0 SSE 11 17 6 9 1012.0 1012.1 3.2
16/10:56am 9.0 7.1 8.9 99 0.0 SE 9 17 5 9 1012.0 1012.1 3.0
16/10:30am 8.9 6.2 8.8 99 0.0 SE 13 19 7 10 1012.1 1012.2 2.6
16/10:00am 8.8 6.0 8.7 99 0.0 ESE 13 20 7 11 1012.4 1012.5 2.0
16/09:40am 8.5 5.3 8.4 99 0.0 SE 15 20 8 11 1012.4 1012.5 1.4
16/09:30am 8.5 5.3 8.4 99 0.0 SE 15 19 8 10 1012.5 1012.6 1.4
16/09:00am 8.5 4.9 8.4 99 0.0 ESE 17 20 9 11 1012.5 1012.6 6.4
16/08:59am 8.4 4.8 8.3 99 0.0 ESE 17 20 9 11 1012.4 1012.5 6.0
16/08:55am 8.4 4.8 8.3 99 0.0 ESE 17 20 9 11 1012.5 1012.6 5.8
16/08:36am 8.5 5.3 8.4 99 0.0 ESE 15 19 8 10 1012.7 1012.8 4.6
16/08:30am 8.5 6.0 8.4 99 0.0 SSE 11 19 6 10 1012.8 1012.9 3.8
16/08:00am 8.5 5.6 8.2 98 0.1 SE 13 20 7 11 1012.7 1012.8 2.8
16/07:30am 8.5 5.5 7.9 96 0.3 SE 13 20 7 11 1012.6 1012.7 2.0
16/07:00am 8.3 5.3 7.7 96 0.3 SE 13 19 7 10 1012.5 1012.6 1.4
16/06:30am 8.5 4.7 7.6 94 0.4 SE 17 22 9 12 1012.5 1012.6 0.8
16/06:00am 8.6 5.1 7.4 92 0.6 SE 15 19 8 10 1012.6 1012.7 0.6
16/05:30am 8.7 5.2 7.2 90 0.7 SSE 15 17 8 9 1012.6 1012.7 0.4
16/05:00am 9.0 5.9 7.1 88 0.9 SE 13 17 7 9 1012.8 1012.9 0.4
16/04:30am 9.0 5.0 6.8 86 1.0 SE 17 20 9 11 1012.6 1012.7 0.4
16/04:00am 9.0 5.1 7.0 87 0.9 SE 17 20 9 11 1012.7 1012.8 0.4
16/03:30am 9.0 4.8 7.3 89 0.8 SSE 19 24 10 13 1012.8 1012.9 0.4
16/03:00am 9.0 5.3 7.8 92 0.6 SE 17 22 9 12 1012.9 1013.0 0.4
16/02:30am 9.0 4.9 7.9 93 0.5 SE 19 24 10 13 1013.1 1013.2 0.4
16/02:00am 9.5 5.8 7.8 89 0.8 SE 17 22 9 12 1013.4 1013.5 0.0
16/01:30am 10.2 5.9 8.0 86 1.1 ESE 20 24 11 13 1013.7 1013.8 0.0
16/01:00am 11.1 7.2 8.5 84 1.3 E 19 30 10 16 1014.0 1014.1 0.0
16/12:30am 11.1 7.2 8.5 84 1.3 E 19 30 10 16 1014.2 1014.3 0.0
16/12:00am 11.1 7.2 8.8 86 1.1 ENE 19 30 10 16 1014.5 1014.6 0.0

Other Formats:

Comma delimited format used in spreadsheet applications
http://www.bom.gov.au/fwo/IDT60801/IDT60801.95957.axf

JavaScript Object Notation format (JSON) in row-major order
http://www.bom.gov.au/fwo/IDT60801/IDT60801.95957.json